createdAt,value
2023-02-27T00:04:37.425Z,1.90
2023-02-27T00:09:42.764Z,2.43
2023-02-27T00:14:45.758Z,2.20
2023-02-27T00:19:50.156Z,2.37
2023-02-27T00:24:53.138Z,1.80
2023-02-27T00:29:56.247Z,2.27
2023-02-27T00:35:00.733Z,1.87
2023-02-27T00:40:05.235Z,1.87
2023-02-27T00:45:10.156Z,2.80
2023-02-27T00:50:14.838Z,2.03
2023-02-27T00:55:18.246Z,2.27
2023-02-27T01:00:21.575Z,2.10
2023-02-27T01:05:26.416Z,1.80
2023-02-27T01:10:29.590Z,1.90
2023-02-27T01:15:32.648Z,1.90
2023-02-27T01:20:37.313Z,2.00
2023-02-27T01:25:40.832Z,2.17
2023-02-27T01:30:44.622Z,1.90
2023-02-27T01:35:51.969Z,2.60
2023-02-27T01:40:54.986Z,2.43
2023-02-27T01:45:59.803Z,1.87
2023-02-27T01:51:10.079Z,1.90
2023-02-27T01:56:17.008Z,2.10
2023-02-27T02:01:22.322Z,2.03
2023-02-27T02:06:31.940Z,1.97
2023-02-27T02:11:35.071Z,2.20
2023-02-27T02:16:50.629Z,2.00
2023-02-27T02:22:27.470Z,1.83
2023-02-27T02:27:42.270Z,1.90
2023-02-27T02:33:16.801Z,2.20
2023-02-27T02:38:43.364Z,2.13
2023-02-27T02:43:58.486Z,1.90
2023-02-27T02:49:14.522Z,1.87
2023-02-27T02:54:27.090Z,1.70
2023-02-27T02:59:35.428Z,1.77
2023-02-27T03:04:42.835Z,2.13
2023-02-27T03:09:54.134Z,1.90
2023-02-27T03:15:04.090Z,1.73
2023-02-27T03:20:10.334Z,2.10
2023-02-27T03:25:16.346Z,1.80
2023-02-27T03:30:29.748Z,1.60
2023-02-27T03:35:44.691Z,1.40
2023-02-27T03:41:00.807Z,1.70
2023-02-27T03:46:16.059Z,1.60
2023-02-27T03:51:22.756Z,2.20
2023-02-27T03:56:31.268Z,1.60
2023-02-27T04:01:35.596Z,1.77
2023-02-27T04:06:58.075Z,1.67
2023-02-27T04:12:19.532Z,1.50
2023-02-27T04:17:25.184Z,1.60
2023-02-27T04:22:37.280Z,1.73
2023-02-27T04:27:52.181Z,1.90
2023-02-27T04:32:58.877Z,1.17
2023-02-27T04:38:07.039Z,1.80
2023-02-27T04:43:15.618Z,2.20
2023-02-27T04:48:23.796Z,1.70
2023-02-27T04:53:29.415Z,1.83
2023-02-27T04:58:37.659Z,1.60
2023-02-27T05:03:45.067Z,1.90
2023-02-27T05:08:55.467Z,1.60
2023-02-27T05:14:06.355Z,1.70
2023-02-27T05:19:10.374Z,1.50
2023-02-27T05:24:22.471Z,1.37
2023-02-27T05:29:34.518Z,1.33
2023-02-27T05:34:43.566Z,2.03
2023-02-27T05:39:50.237Z,1.80
2023-02-27T05:45:01.750Z,1.50
2023-02-27T05:50:13.584Z,1.97
2023-02-27T05:55:23.127Z,1.40
2023-02-27T06:00:35.201Z,2.07
2023-02-27T06:05:39.962Z,1.70
2023-02-27T06:10:42.880Z,2.13
2023-02-27T06:15:47.453Z,1.87
2023-02-27T06:20:51.291Z,1.73
2023-02-27T06:25:54.597Z,2.70
2023-02-27T06:30:59.040Z,2.30
2023-02-27T06:36:02.117Z,2.20
2023-02-27T06:41:08.177Z,2.40
2023-02-27T06:46:12.978Z,2.17
2023-02-27T06:51:16.554Z,2.33
2023-02-27T06:56:19.496Z,2.30
2023-02-27T07:01:24.980Z,2.20
2023-02-27T07:07:32.634Z,1.87
2023-02-27T07:11:51.523Z,2.27
2023-02-27T07:16:55.900Z,1.93
2023-02-27T07:21:59.459Z,2.00
2023-02-27T07:27:04.697Z,1.50
2023-02-27T07:32:09.262Z,1.67
2023-02-27T07:37:12.503Z,1.70
2023-02-27T07:42:16.797Z,1.93
2023-02-27T07:47:21.378Z,1.60
2023-02-27T07:52:24.480Z,2.10
2023-02-27T07:57:27.457Z,2.60
2023-02-27T08:02:32.940Z,2.70
2023-02-27T08:07:36.697Z,2.80
2023-02-27T08:12:40.053Z,2.23
2023-02-27T08:17:46.087Z,2.40
2023-02-27T08:22:49.122Z,2.50
2023-02-27T08:27:52.408Z,2.20
2023-02-27T08:32:57.164Z,2.57
2023-02-27T08:38:00.179Z,2.50
2023-02-27T08:43:06.443Z,2.20
2023-02-27T08:48:15.938Z,2.20
2023-02-27T08:53:21.319Z,1.83
2023-02-27T08:58:24.308Z,2.10
2023-02-27T09:03:28.844Z,1.90
2023-02-27T09:08:32.256Z,1.80
2023-02-27T09:13:35.243Z,2.40
2023-02-27T09:18:39.650Z,1.90
2023-02-27T09:23:43.004Z,1.97
2023-02-27T09:28:46.017Z,1.83
2023-02-27T09:33:50.922Z,2.20
2023-02-27T09:38:53.997Z,1.67
2023-02-27T09:43:57.102Z,1.67
2023-02-27T09:49:05.219Z,3.13
2023-02-27T09:54:08.632Z,1.80
2023-02-27T09:59:22.439Z,1.80
2023-02-27T10:04:34.014Z,1.80
2023-02-27T10:09:45.391Z,1.80
2023-02-27T10:14:53.778Z,1.80
2023-02-27T10:19:59.699Z,1.70
2023-02-27T10:25:21.431Z,1.70
2023-02-27T10:30:34.692Z,1.50
2023-02-27T10:35:42.577Z,2.17
2023-02-27T10:40:46.684Z,1.20
2023-02-27T10:45:50.104Z,1.40
2023-02-27T10:51:21.988Z,2.03
2023-02-27T10:56:28.186Z,1.57
2023-02-27T11:01:43.933Z,1.80
2023-02-27T11:06:54.106Z,1.63
2023-02-27T11:12:11.407Z,1.60
2023-02-27T11:17:24.062Z,2.27
2023-02-27T11:22:30.767Z,1.57
2023-02-27T11:27:33.804Z,1.70
2023-02-27T11:32:42.564Z,1.50
2023-02-27T11:37:50.773Z,1.53
2023-02-27T11:42:56.423Z,2.03
2023-02-27T11:48:04.481Z,1.47
2023-02-27T11:53:27.090Z,1.50
2023-02-27T11:58:38.706Z,1.40
2023-02-27T12:03:50.584Z,1.00
2023-02-27T12:09:01.899Z,1.43
2023-02-27T12:14:17.864Z,1.40
2023-02-27T12:19:25.697Z,1.53
2023-02-27T12:24:37.815Z,1.27
2023-02-27T12:29:47.867Z,1.40
2023-02-27T12:34:55.540Z,1.43
2023-02-27T12:40:02.754Z,1.30
2023-02-27T12:45:44.437Z,1.40
2023-02-27T12:50:55.468Z,1.10
2023-02-27T12:56:05.291Z,1.30
2023-02-27T13:01:19.645Z,1.20
2023-02-27T13:06:31.291Z,1.30
2023-02-27T13:11:48.054Z,1.70
2023-02-27T13:16:59.035Z,1.20
2023-02-27T13:22:09.564Z,1.00
2023-02-27T13:27:21.276Z,1.10
2023-02-27T13:32:43.137Z,0.90
2023-02-27T13:37:52.205Z,0.87
2023-02-27T13:43:00.560Z,0.90
2023-02-27T13:48:06.000Z,1.10
2023-02-27T13:53:19.276Z,1.00
2023-02-27T13:58:25.927Z,1.30
2023-02-27T14:03:32.216Z,1.10
2023-02-27T14:08:48.946Z,0.90
2023-02-27T14:14:03.857Z,1.40
2023-02-27T14:19:42.046Z,0.90
2023-02-27T14:25:01.651Z,1.20
2023-02-27T14:30:23.430Z,1.13
2023-02-27T14:35:27.901Z,1.40
2023-02-27T14:40:38.508Z,1.13
2023-02-27T14:45:43.104Z,1.13
2023-02-27T14:50:46.131Z,1.23
2023-02-27T14:55:54.931Z,1.20
2023-02-27T15:01:05.015Z,1.60
2023-02-27T15:06:17.218Z,1.40
2023-02-27T15:11:22.337Z,1.53
2023-02-27T15:16:41.358Z,1.13
2023-02-27T15:21:49.799Z,1.00
2023-02-27T15:26:56.607Z,1.20
2023-02-27T15:32:01.663Z,1.37
2023-02-27T15:37:08.355Z,1.43
2023-02-27T15:42:16.100Z,1.33
2023-02-27T15:47:28.392Z,1.33
2023-02-27T15:52:39.969Z,1.23
2023-02-27T15:57:56.623Z,1.40
2023-02-27T16:03:08.132Z,1.63
2023-02-27T16:08:19.765Z,1.40
2023-02-27T16:13:35.038Z,1.50
2023-02-27T16:18:47.798Z,1.37
2023-02-27T16:23:51.690Z,1.23
2023-02-27T16:28:56.943Z,1.17
2023-02-27T16:34:06.174Z,1.50
2023-02-27T16:39:13.265Z,1.50
2023-02-27T16:44:18.233Z,1.67
2023-02-27T16:49:25.541Z,1.53
2023-02-27T16:54:28.775Z,1.40
2023-02-27T16:59:36.617Z,1.47
2023-02-27T17:04:44.179Z,1.40
2023-02-27T17:09:50.946Z,1.13
2023-02-27T17:14:54.206Z,1.37
2023-02-27T17:19:58.669Z,1.40
2023-02-27T17:25:01.873Z,2.30
2023-02-27T17:30:09.604Z,2.00
2023-02-27T17:35:14.119Z,1.70
2023-02-27T17:40:20.088Z,1.60
2023-02-27T17:45:24.897Z,1.70
2023-02-27T17:50:32.068Z,1.60
2023-02-27T17:55:35.152Z,1.50
2023-02-27T18:00:38.302Z,1.50
2023-02-27T18:05:49.157Z,1.50
2023-02-27T18:10:53.539Z,2.23
2023-02-27T18:15:59.638Z,1.50
2023-02-27T18:21:06.955Z,1.73
2023-02-27T18:26:23.729Z,1.70
2023-02-27T18:31:33.883Z,1.80
2023-02-27T18:36:38.752Z,1.90
2023-02-27T18:41:42.366Z,2.10
2023-02-27T18:46:45.613Z,1.93
2023-02-27T18:51:50.215Z,1.87
2023-02-27T18:56:53.326Z,2.20
2023-02-27T19:01:57.647Z,2.00
2023-02-27T19:07:05.292Z,2.30
2023-02-27T19:12:11.860Z,2.30
2023-02-27T19:17:14.986Z,2.70
2023-02-27T19:22:22.560Z,2.87
2023-02-27T19:27:26.218Z,3.03
2023-02-27T19:32:29.429Z,2.80
2023-02-27T19:37:34.143Z,2.90
2023-02-27T19:42:37.663Z,2.73
2023-02-27T19:47:41.123Z,2.90
2023-02-27T19:52:45.710Z,3.00
2023-02-27T19:57:48.881Z,3.40
2023-02-27T20:02:52.088Z,3.20
2023-02-27T20:07:57.710Z,2.90
2023-02-27T20:13:01.012Z,2.60
2023-02-27T20:18:05.333Z,2.33
2023-02-27T20:23:09.853Z,2.63
2023-02-27T20:28:13.376Z,2.93
2023-02-27T20:33:16.482Z,3.33
2023-02-27T20:38:22.789Z,3.20
2023-02-27T20:43:26.219Z,2.73
2023-02-27T20:48:31.795Z,2.87
2023-02-27T20:53:47.142Z,3.27
2023-02-27T20:58:53.790Z,3.00
2023-02-27T21:03:58.835Z,2.80
2023-02-27T21:09:07.373Z,2.43
2023-02-27T21:14:13.421Z,2.50
2023-02-27T21:19:16.521Z,2.43
2023-02-27T21:24:23.599Z,2.43
2023-02-27T21:29:27.095Z,2.53
2023-02-27T21:34:30.689Z,2.43
2023-02-27T21:39:35.147Z,2.60
2023-02-27T21:44:38.330Z,3.07
2023-02-27T21:49:41.604Z,3.20
2023-02-27T21:54:46.179Z,3.17
2023-02-27T21:59:51.887Z,2.93
2023-02-27T22:04:54.895Z,2.77
2023-02-27T22:09:59.333Z,3.00
2023-02-27T22:15:05.708Z,2.67
2023-02-27T22:20:10.175Z,3.40
2023-02-27T22:25:14.886Z,3.00
2023-02-27T22:30:18.316Z,2.90
2023-02-27T22:35:21.328Z,3.03
2023-02-27T22:40:25.888Z,2.90
2023-02-27T22:45:34.116Z,3.03
2023-02-27T22:50:45.737Z,2.90
2023-02-27T22:55:55.669Z,2.90
2023-02-27T23:00:58.888Z,3.10
2023-02-27T23:06:02.001Z,2.80
2023-02-27T23:11:10.723Z,2.80
2023-02-27T23:16:14.423Z,2.90
2023-02-27T23:21:20.197Z,3.03
2023-02-27T23:26:28.640Z,2.90
2023-02-27T23:31:34.660Z,2.80
2023-02-27T23:36:40.705Z,2.73
2023-02-27T23:41:45.063Z,2.50
2023-02-27T23:46:48.368Z,2.83
2023-02-27T23:51:51.527Z,2.20
2023-02-27T23:56:55.835Z,2.60
